Terminal Aerodrome Forecast
Issued by NWS

Home | Current Version | Previous Version | Graphics & Text | Print | Product List | Glossary On
Versions: 1 2 3 4 5 6 7 8 9 10 11 12 13 14 15 16 17 18 19 20 21 22 23 24 25
337
FTUS43 KLOT 131502 AAA
TAFORD
TAF AMD
KORD 131502Z 1315/1418 VRB03KT P6SM SCT250
     FM131700 09005KT P6SM SCT050 BKN200
     FM132000 10008KT P6SM SCT050 BKN200
     FM140200 15003KT P6SM SCT200
     FM141500 19005KT P6SM BKN150=

USA.gov is the U.S. government's official web portal to all federal, state and local government web resources and services.